PWSweather.com
Personal Weather Stations
Station Observations
CALONGE
CalongeES 17251

CalongeES 17251

Lat: 41.85972222, Lon: 3.077777778

Elevation: 16

Station Type: Oregon WMR928N

www.calonge-meteoweb.com

High Low Average
Temperature 74.7°F23.7°C 52.9°F11.6°C 66.7°F19.3°C
Dew Point 49.5°F9.7°C 37.5°F3.1°C 42.6°F5.9°C
Winds 12.0 mph 19.3 kmh Calm Calm 5.0 mph SSW8.0 kmh SSW
Wind Gusts 20.2 mph32.5 kmh -- 9.0 mph14.5 kmh
Humidity 82% 27% 44%
Pressure 30.24 in1024.0 mb 30.18 in1022.0 mb -
Precipitation 0.00 in0.0 mm - -
Hour Temp Dew Point Humidity Winds Wind Gusts Pressure Precip Precip Rate Daily Precip Total
12:00 AM 57.9°F14.4°C 45.0°F7.2°C 62% Calm Calm 7.0 mph11.3 kmh 30.21 in1023.0 mb 0.00 in0.0 mm 0.00 in0.0 mm 0.00 in0.0 mm
12:15 AM 57.6°F14.2°C 44.6°F7.0°C 62% Calm Calm -- 30.21 in1023.0 mb 0.00 in0.0 mm 0.00 in0.0 mm 0.00 in0.0 mm
12:30 AM 56.3°F13.5°C 45.9°F7.7°C 68% 3.5 mph W5.6 kmh W 7.6 mph12.2 kmh 30.21 in1023.0 mb 0.00 in0.0 mm 0.00 in0.0 mm 0.00 in0.0 mm
12:45 AM 56.5°F13.6°C 46.8°F8.2°C 70% 4.7 mph WNW7.6 kmh WNW 8.2 mph13.2 kmh 30.21 in1023.0 mb 0.00 in0.0 mm 0.00 in0.0 mm 0.00 in0.0 mm
01:00 AM 56.5°F13.6°C 45.7°F7.6°C 67% 2.9 mph WNW4.7 kmh WNW 8.2 mph13.2 kmh 30.21 in1023.0 mb 0.00 in0.0 mm 0.00 in0.0 mm 0.00 in0.0 mm
02:30 AM 54.9°F12.7°C 49.1°F9.5°C 81% Calm Calm -- 30.21 in1023.0 mb 0.00 in0.0 mm 0.00 in0.0 mm 0.00 in0.0 mm
02:45 AM 54.9°F12.7°C 49.5°F9.7°C 82% 3.5 mph WNW5.6 kmh WNW 5.3 mph8.5 kmh 30.21 in1023.0 mb 0.00 in0.0 mm 0.00 in0.0 mm 0.00 in0.0 mm
03:00 AM 54.3°F12.4°C 48.3°F9.1°C 80% Calm Calm -- 30.21 in1023.0 mb 0.00 in0.0 mm 0.00 in0.0 mm 0.00 in0.0 mm
03:15 AM 54.0°F12.2°C 47.6°F8.7°C 79% Calm Calm -- 30.21 in1023.0 mb 0.00 in0.0 mm 0.00 in0.0 mm 0.00 in0.0 mm
03:30 AM 53.1°F11.7°C 47.1°F8.4°C 80% Calm Calm -- 30.21 in1023.0 mb 0.00 in0.0 mm 0.00 in0.0 mm 0.00 in0.0 mm
03:45 AM 52.9°F11.6°C 46.9°F8.3°C 80% Calm Calm -- 30.18 in1022.0 mb 0.00 in0.0 mm 0.00 in0.0 mm 0.00 in0.0 mm
04:00 AM 57.0°F13.9°C 44.5°F6.9°C 63% 4.1 mph NW6.6 kmh NW 10.5 mph16.9 kmh 30.18 in1022.0 mb 0.00 in0.0 mm 0.00 in0.0 mm 0.00 in0.0 mm
04:15 AM 58.5°F14.7°C 42.8°F6.0°C 56% 3.5 mph NW5.6 kmh NW 10.5 mph16.9 kmh 30.18 in1022.0 mb 0.00 in0.0 mm 0.00 in0.0 mm 0.00 in0.0 mm
04:30 AM 59.5°F15.3°C 42.4°F5.8°C 53% 7.0 mph NW11.3 kmh NW 8.8 mph14.2 kmh 30.18 in1022.0 mb 0.00 in0.0 mm 0.00 in0.0 mm 0.00 in0.0 mm
04:45 AM 59.7°F15.4°C 42.1°F5.6°C 52% 5.3 mph NW8.5 kmh NW 10.0 mph16.1 kmh 30.18 in1022.0 mb 0.00 in0.0 mm 0.00 in0.0 mm 0.00 in0.0 mm
05:00 AM 59.9°F15.5°C 42.2°F5.7°C 52% 5.3 mph NW8.5 kmh NW 10.0 mph16.1 kmh 30.21 in1023.0 mb 0.00 in0.0 mm 0.00 in0.0 mm 0.00 in0.0 mm
05:15 AM 60.1°F15.6°C 41.9°F5.5°C 51% 7.0 mph NW11.3 kmh NW 10.0 mph16.1 kmh 30.21 in1023.0 mb 0.00 in0.0 mm 0.00 in0.0 mm 0.00 in0.0 mm
05:30 AM 60.1°F15.6°C 41.9°F5.5°C 51% 5.9 mph NW9.5 kmh NW 7.6 mph12.2 kmh 30.21 in1023.0 mb 0.00 in0.0 mm 0.00 in0.0 mm 0.00 in0.0 mm
05:45 AM 60.3°F15.7°C 41.5°F5.3°C 50% 5.9 mph WNW9.5 kmh WNW 10.5 mph16.9 kmh 30.21 in1023.0 mb 0.00 in0.0 mm 0.00 in0.0 mm 0.00 in0.0 mm
06:00 AM 60.4°F15.8°C 41.7°F5.4°C 50% 5.9 mph WNW9.5 kmh WNW 10.8 mph17.4 kmh 30.21 in1023.0 mb 0.00 in0.0 mm 0.00 in0.0 mm 0.00 in0.0 mm
06:15 AM 60.6°F15.9°C 41.9°F5.5°C 50% 6.4 mph NW10.3 kmh NW 10.8 mph17.4 kmh 30.21 in1023.0 mb 0.00 in0.0 mm 0.00 in0.0 mm 0.00 in0.0 mm
06:30 AM 61.0°F16.1°C 41.7°F5.4°C 49% 7.6 mph NW12.2 kmh NW 10.0 mph16.1 kmh 30.21 in1023.0 mb 0.00 in0.0 mm 0.00 in0.0 mm 0.00 in0.0 mm
06:45 AM 61.5°F16.4°C 41.6°F5.3°C 48% 8.2 mph NW13.2 kmh NW 13.8 mph22.2 kmh 30.21 in1023.0 mb 0.00 in0.0 mm 0.00 in0.0 mm 0.00 in0.0 mm
07:00 AM 61.9°F16.6°C 41.4°F5.2°C 47% 8.8 mph NW14.2 kmh NW 11.4 mph18.3 kmh 30.21 in1023.0 mb 0.00 in0.0 mm 0.00 in0.0 mm 0.00 in0.0 mm
07:15 AM 62.8°F17.1°C 41.1°F5.1°C 45% 7.0 mph NW11.3 kmh NW 14.4 mph23.2 kmh 30.21 in1023.0 mb 0.00 in0.0 mm 0.00 in0.0 mm 0.00 in0.0 mm
07:30 AM 63.3°F17.4°C 41.0°F5.0°C 44% 9.4 mph NW15.1 kmh NW 13.2 mph21.2 kmh 30.21 in1023.0 mb 0.00 in0.0 mm 0.00 in0.0 mm 0.00 in0.0 mm
07:45 AM 64.2°F17.9°C 41.2°F5.1°C 43% 5.9 mph NW9.5 kmh NW 10.8 mph17.4 kmh 30.24 in1024.0 mb 0.00 in0.0 mm 0.00 in0.0 mm 0.00 in0.0 mm
08:00 AM 64.6°F18.1°C 41.0°F5.0°C 42% 7.6 mph NW12.2 kmh NW 13.2 mph21.2 kmh 30.24 in1024.0 mb 0.00 in0.0 mm 0.00 in0.0 mm 0.00 in0.0 mm
08:15 AM 65.8°F18.8°C 40.8°F4.9°C 40% 7.0 mph NW11.3 kmh NW 13.2 mph21.2 kmh 30.24 in1024.0 mb 0.00 in0.0 mm 0.00 in0.0 mm 0.00 in0.0 mm
08:30 AM 66.2°F19.0°C 41.2°F5.1°C 40% 5.9 mph NW9.5 kmh NW 13.8 mph22.2 kmh 30.24 in1024.0 mb 0.00 in0.0 mm 0.00 in0.0 mm 0.00 in0.0 mm
08:45 AM 66.7°F19.3°C 41.6°F5.3°C 40% 5.9 mph NW9.5 kmh NW 8.2 mph13.2 kmh 30.24 in1024.0 mb 0.00 in0.0 mm 0.00 in0.0 mm 0.00 in0.0 mm
09:00 AM 68.0°F20.0°C 41.4°F5.2°C 38% 7.0 mph NW11.3 kmh NW 8.2 mph13.2 kmh 30.24 in1024.0 mb 0.00 in0.0 mm 0.00 in0.0 mm 0.00 in0.0 mm
09:15 AM 69.3°F20.7°C 40.4°F4.7°C 35% 3.5 mph NW5.6 kmh NW 8.2 mph13.2 kmh 30.24 in1024.0 mb 0.00 in0.0 mm 0.00 in0.0 mm 0.00 in0.0 mm
09:30 AM 69.8°F21.0°C 40.2°F4.6°C 34% 3.5 mph NW5.6 kmh NW 8.2 mph13.2 kmh 30.24 in1024.0 mb 0.00 in0.0 mm 0.00 in0.0 mm 0.00 in0.0 mm
09:45 AM 70.9°F21.6°C 41.1°F5.1°C 34% 4.1 mph NW6.6 kmh NW 8.8 mph14.2 kmh 30.24 in1024.0 mb 0.00 in0.0 mm 0.00 in0.0 mm 0.00 in0.0 mm
10:00 AM 72.1°F22.3°C 40.6°F4.8°C 32% Calm Calm 7.6 mph12.2 kmh 30.24 in1024.0 mb 0.00 in0.0 mm 0.00 in0.0 mm 0.00 in0.0 mm
10:15 AM 72.5°F22.5°C 39.3°F4.1°C 30% Calm Calm 6.4 mph10.3 kmh 30.24 in1024.0 mb 0.00 in0.0 mm 0.00 in0.0 mm 0.00 in0.0 mm
10:30 AM 72.9°F22.7°C 37.8°F3.2°C 28% 5.9 mph W9.5 kmh W 8.2 mph13.2 kmh 30.24 in1024.0 mb 0.00 in0.0 mm 0.00 in0.0 mm 0.00 in0.0 mm
10:45 AM 73.6°F23.1°C 37.5°F3.1°C 27% 8.8 mph WNW14.2 kmh WNW 11.4 mph18.3 kmh 30.24 in1024.0 mb 0.00 in0.0 mm 0.00 in0.0 mm 0.00 in0.0 mm
11:00 AM 74.3°F23.5°C 42.5°F5.8°C 32% 7.6 mph NE12.2 kmh NE 13.8 mph22.2 kmh 30.21 in1023.0 mb 0.00 in0.0 mm 0.00 in0.0 mm 0.00 in0.0 mm
11:15 AM 74.7°F23.7°C 42.0°F5.6°C 31% 7.0 mph E11.3 kmh E 20.2 mph32.5 kmh 30.21 in1023.0 mb 0.00 in0.0 mm 0.00 in0.0 mm 0.00 in0.0 mm
11:30 AM 73.9°F23.3°C 43.8°F6.6°C 34% 12.0 mph SE19.3 kmh SE 19.0 mph30.6 kmh 30.21 in1023.0 mb 0.00 in0.0 mm 0.00 in0.0 mm 0.00 in0.0 mm
11:45 AM 73.2°F22.9°C 43.9°F6.6°C 35% 12.0 mph SE19.3 kmh SE 17.3 mph27.8 kmh 30.24 in1024.0 mb 0.00 in0.0 mm 0.00 in0.0 mm 0.00 in0.0 mm
12:00 PM 72.3°F22.4°C 41.6°F5.3°C 33% 8.2 mph SSE13.2 kmh SSE 14.4 mph23.2 kmh 30.24 in1024.0 mb 0.00 in0.0 mm 0.00 in0.0 mm 0.00 in0.0 mm
12:15 PM 72.5°F22.5°C 42.5°F5.8°C 34% 8.8 mph SSE14.2 kmh SSE 13.2 mph21.2 kmh 30.24 in1024.0 mb 0.00 in0.0 mm 0.00 in0.0 mm 0.00 in0.0 mm
12:30 PM 72.7°F22.6°C 41.9°F5.5°C 33% 7.0 mph S11.3 kmh S 12.0 mph19.3 kmh 30.24 in1024.0 mb 0.00 in0.0 mm 0.00 in0.0 mm 0.00 in0.0 mm
12:45 PM 73.0°F22.8°C 43.0°F6.1°C 34% 8.2 mph S13.2 kmh S 12.6 mph20.3 kmh 30.24 in1024.0 mb 0.00 in0.0 mm 0.00 in0.0 mm 0.00 in0.0 mm
01:00 PM 72.9°F22.7°C 42.1°F5.6°C 33% 7.0 mph SE11.3 kmh SE 16.7 mph26.9 kmh 30.24 in1024.0 mb 0.00 in0.0 mm 0.00 in0.0 mm 0.00 in0.0 mm
01:15 PM 73.0°F22.8°C 38.0°F3.3°C 28% 8.8 mph SE14.2 kmh SE 16.1 mph25.9 kmh 30.24 in1024.0 mb 0.00 in0.0 mm 0.00 in0.0 mm 0.00 in0.0 mm
01:30 PM 73.2°F22.9°C 41.6°F5.3°C 32% 9.4 mph SE15.1 kmh SE 13.8 mph22.2 kmh 30.24 in1024.0 mb 0.00 in0.0 mm 0.00 in0.0 mm 0.00 in0.0 mm
01:45 PM 73.0°F22.8°C 40.6°F4.8°C 31% 7.0 mph S11.3 kmh S 13.8 mph22.2 kmh 30.24 in1024.0 mb 0.00 in0.0 mm 0.00 in0.0 mm 0.00 in0.0 mm
02:00 PM 73.4°F23.0°C 40.9°F4.9°C 31% 11.4 mph SSE18.3 kmh SSE 14.4 mph23.2 kmh 30.21 in1023.0 mb 0.00 in0.0 mm 0.00 in0.0 mm 0.00 in0.0 mm
02:15 PM 73.8°F23.2°C 41.2°F5.1°C 31% 7.6 mph S12.2 kmh S 17.3 mph27.8 kmh 30.21 in1023.0 mb 0.00 in0.0 mm 0.00 in0.0 mm 0.00 in0.0 mm
02:30 PM 73.6°F23.1°C 40.2°F4.6°C 30% 7.6 mph S12.2 kmh S 17.3 mph27.8 kmh 30.21 in1023.0 mb 0.00 in0.0 mm 0.00 in0.0 mm 0.00 in0.0 mm
02:45 PM 73.8°F23.2°C 37.7°F3.2°C 27% 8.8 mph S14.2 kmh S 16.7 mph26.9 kmh 30.21 in1023.0 mb 0.00 in0.0 mm 0.00 in0.0 mm 0.00 in0.0 mm
03:00 PM 73.8°F23.2°C 41.2°F5.1°C 31% 8.2 mph S13.2 kmh S 14.4 mph23.2 kmh 30.21 in1023.0 mb 0.00 in0.0 mm 0.00 in0.0 mm 0.00 in0.0 mm
03:15 PM 73.6°F23.1°C 41.1°F5.1°C 31% 6.4 mph SSE10.3 kmh SSE 16.7 mph26.9 kmh 30.21 in1023.0 mb 0.00 in0.0 mm 0.00 in0.0 mm 0.00 in0.0 mm
03:30 PM 73.8°F23.2°C 42.0°F5.6°C 32% 12.0 mph S19.3 kmh S 14.4 mph23.2 kmh 30.21 in1023.0 mb 0.00 in0.0 mm 0.00 in0.0 mm 0.00 in0.0 mm
03:45 PM 73.2°F22.9°C 41.6°F5.3°C 32% 7.6 mph SSW12.2 kmh SSW 13.8 mph22.2 kmh 30.21 in1023.0 mb 0.00 in0.0 mm 0.00 in0.0 mm 0.00 in0.0 mm
04:00 PM 73.0°F22.8°C 41.4°F5.2°C 32% 6.4 mph SSW10.3 kmh SSW 16.7 mph26.9 kmh 30.21 in1023.0 mb 0.00 in0.0 mm 0.00 in0.0 mm 0.00 in0.0 mm
04:15 PM 73.0°F22.8°C 42.2°F5.7°C 33% 7.0 mph SSW11.3 kmh SSW 13.2 mph21.2 kmh 30.21 in1023.0 mb 0.00 in0.0 mm 0.00 in0.0 mm 0.00 in0.0 mm
04:30 PM 73.0°F22.8°C 42.2°F5.7°C 33% 8.8 mph SW14.2 kmh SW 15.5 mph24.9 kmh 30.21 in1023.0 mb 0.00 in0.0 mm 0.00 in0.0 mm 0.00 in0.0 mm
04:45 PM 73.2°F22.9°C 44.7°F7.1°C 36% 4.7 mph SSW7.6 kmh SSW 14.4 mph23.2 kmh 30.21 in1023.0 mb 0.00 in0.0 mm 0.00 in0.0 mm 0.00 in0.0 mm
05:00 PM 73.4°F23.0°C 45.5°F7.5°C 37% 10.0 mph S16.1 kmh S 14.9 mph24.0 kmh 30.21 in1023.0 mb 0.00 in0.0 mm 0.00 in0.0 mm 0.00 in0.0 mm
05:15 PM 73.0°F22.8°C 47.9°F8.8°C 41% 7.6 mph S12.2 kmh S 11.4 mph18.3 kmh 30.18 in1022.0 mb 0.00 in0.0 mm 0.00 in0.0 mm 0.00 in0.0 mm
05:30 PM 73.0°F22.8°C 48.6°F9.2°C 42% 8.2 mph SSW13.2 kmh SSW 13.2 mph21.2 kmh 30.18 in1022.0 mb 0.00 in0.0 mm 0.00 in0.0 mm 0.00 in0.0 mm
05:45 PM 73.2°F22.9°C 44.7°F7.1°C 36% 5.9 mph SW9.5 kmh SW 11.4 mph18.3 kmh 30.18 in1022.0 mb 0.00 in0.0 mm 0.00 in0.0 mm 0.00 in0.0 mm
06:00 PM 73.4°F23.0°C 44.1°F6.7°C 35% 6.4 mph SSW10.3 kmh SSW 10.5 mph16.9 kmh 30.18 in1022.0 mb 0.00 in0.0 mm 0.00 in0.0 mm 0.00 in0.0 mm
06:15 PM 73.6°F23.1°C 43.5°F6.4°C 34% 3.5 mph SSW5.6 kmh SSW 9.4 mph15.1 kmh 30.18 in1022.0 mb 0.00 in0.0 mm 0.00 in0.0 mm 0.00 in0.0 mm
06:30 PM 73.8°F23.2°C 42.9°F6.1°C 33% 4.1 mph SW6.6 kmh SW 8.8 mph14.2 kmh 30.18 in1022.0 mb 0.00 in0.0 mm 0.00 in0.0 mm 0.00 in0.0 mm
06:45 PM 73.6°F23.1°C 42.7°F5.9°C 33% 5.3 mph SSW8.5 kmh SSW 8.2 mph13.2 kmh 30.18 in1022.0 mb 0.00 in0.0 mm 0.00 in0.0 mm 0.00 in0.0 mm
07:00 PM 72.5°F22.5°C 41.7°F5.4°C 33% Calm Calm 10.0 mph16.1 kmh 30.18 in1022.0 mb 0.00 in0.0 mm 0.00 in0.0 mm 0.00 in0.0 mm
07:15 PM 72.1°F22.3°C 42.2°F5.7°C 34% Calm Calm -- 30.18 in1022.0 mb 0.00 in0.0 mm 0.00 in0.0 mm 0.00 in0.0 mm
07:30 PM 71.4°F21.9°C 41.6°F5.3°C 34% 4.1 mph WSW6.6 kmh WSW 8.2 mph13.2 kmh 30.18 in1022.0 mb 0.00 in0.0 mm 0.00 in0.0 mm 0.00 in0.0 mm
07:45 PM 71.1°F21.7°C 41.3°F5.2°C 34% Calm Calm -- 30.18 in1022.0 mb 0.00 in0.0 mm 0.00 in0.0 mm 0.00 in0.0 mm
08:00 PM 71.1°F21.7°C 41.3°F5.2°C 34% Calm Calm -- 30.21 in1023.0 mb 0.00 in0.0 mm 0.00 in0.0 mm 0.00 in0.0 mm
08:15 PM 71.1°F21.7°C 41.3°F5.2°C 34% Calm Calm -- 30.21 in1023.0 mb 0.00 in0.0 mm 0.00 in0.0 mm 0.00 in0.0 mm
08:45 PM 66.0°F18.9°C 42.9°F6.1°C 43% Calm Calm -- 30.21 in1023.0 mb 0.00 in0.0 mm 0.00 in0.0 mm 0.00 in0.0 mm
09:00 PM 65.7°F18.7°C 43.1°F6.2°C 44% Calm Calm -- 30.21 in1023.0 mb 0.00 in0.0 mm 0.00 in0.0 mm 0.00 in0.0 mm
09:15 PM 63.5°F17.5°C 43.4°F6.3°C 48% Calm Calm -- 30.21 in1023.0 mb 0.00 in0.0 mm 0.00 in0.0 mm 0.00 in0.0 mm
09:30 PM 62.4°F16.9°C 43.5°F6.4°C 50% Calm Calm -- 30.24 in1024.0 mb 0.00 in0.0 mm 0.00 in0.0 mm 0.00 in0.0 mm
09:45 PM 61.7°F16.5°C 43.9°F6.6°C 52% Calm Calm -- 30.24 in1024.0 mb 0.00 in0.0 mm 0.00 in0.0 mm 0.00 in0.0 mm
10:00 PM 61.3°F16.3°C 43.0°F6.1°C 51% Calm Calm -- 30.24 in1024.0 mb 0.00 in0.0 mm 0.00 in0.0 mm 0.00 in0.0 mm
10:15 PM 61.0°F16.1°C 42.7°F5.9°C 51% Calm Calm 7.6 mph12.2 kmh 30.24 in1024.0 mb 0.00 in0.0 mm 0.00 in0.0 mm 0.00 in0.0 mm
10:30 PM 61.5°F16.4°C 42.2°F5.7°C 49% Calm Calm 4.1 mph6.6 kmh 30.24 in1024.0 mb 0.00 in0.0 mm 0.00 in0.0 mm 0.00 in0.0 mm
10:45 PM 61.5°F16.4°C 42.2°F5.7°C 49% Calm Calm 7.0 mph11.3 kmh 30.24 in1024.0 mb 0.00 in0.0 mm 0.00 in0.0 mm 0.00 in0.0 mm
11:00 PM 62.4°F16.9°C 42.5°F5.8°C 48% 5.3 mph NNW8.5 kmh NNW 7.6 mph12.2 kmh 30.24 in1024.0 mb 0.00 in0.0 mm 0.00 in0.0 mm 0.00 in0.0 mm
11:15 PM 63.0°F17.2°C 42.4°F5.8°C 47% Calm Calm 5.3 mph8.5 kmh 30.24 in1024.0 mb 0.00 in0.0 mm 0.00 in0.0 mm 0.00 in0.0 mm
11:30 PM 63.0°F17.2°C 42.4°F5.8°C 47% 3.5 mph NW5.6 kmh NW 7.6 mph12.2 kmh 30.24 in1024.0 mb 0.00 in0.0 mm 0.00 in0.0 mm 0.00 in0.0 mm
11:45 PM 64.2°F17.9°C 43.6°F6.4°C 47% 5.3 mph NW8.5 kmh NW 7.6 mph12.2 kmh 30.24 in1024.0 mb 0.00 in0.0 mm 0.00 in0.0 mm 0.00 in0.0 mm